Minneapolis, Minnesota
Traffic Map
Current Weather Conditions
Minneapolis, Minnesota
Overcast
Overcast
31°
Feels Like: 22°
Wind Chill: 22° Ceiling: 1500
Heat Index: 31° Visibility: 10mi
Dew Point: 28° Wind: 10mph
Humidity: 89% Direction: 310° (NW)
Pressure: 30.27in Gusts: 0mph
Raw Report DataKMSP 171600Z 31009KT 10SM OVC015 M01/M02 A3027 RMK AO2 T10061022
Traffic Incident Summary
Active as of:
Severity:
Category:
InformationThere was an issue retrieving the traffic information for this location. Please try a different location or try again shortly.
Advertisements
At Last! Intellicast now available for iPhone and Android